Latest Weather Observations for Leigh Creek

IDS60801

Issued at 10:01 pm CST Wednesday 26 September 2018 (issued every 10 minutes, with the page automatically refreshed every 10 minutes)

About weather observations | Map of weather stations | Latest weather observations for SA | Other Formats
Station Details ID: 017110 Name: LEIGH CREEK AIRPORT Lat: -30.60 Lon: 138.42 Height: 258.8 m
Data from the previous 72 hours. | See also: Recent months at Leigh Creek
Date/Time
CST
Temp
°C
App
Temp
°C
Dew
Point
°C
Rel
Hum
%
Delta-T
°C
Wind Press
QNH
hPa
Press
MSL
hPa
Rain since
9am
mm
Dir  Spd
km/h
Gust
km/h
Spd
kts
Gust
kts
26/10:00pm 15.1 9.8 -7.7 20 8.2 ENE 13 15 7 8 1018.8 1018.4 0.0
26/09:30pm 16.0 11.0 -8.3 18 8.8 WNW 11 13 6 7 1018.7 1018.3 0.0
26/09:00pm 17.3 13.1 -7.9 17 9.3 WNW 7 9 4 5 1018.6 1018.2 0.0
26/08:30pm 19.3 14.3 -7.9 15 10.3 WNW 11 11 6 6 1018.4 1018.0 0.0
26/08:00pm 19.7 15.1 -7.6 15 10.5 WNW 9 11 5 6 1018.2 1017.8 0.0
26/07:30pm 20.2 15.2 -8.1 14 10.8 WNW 11 13 6 7 1018.0 1017.6 0.0
26/07:00pm 21.4 17.2 -8.1 13 11.4 WNW 7 9 4 5 1017.6 1017.1 0.0
26/06:30pm 22.2 17.9 -8.5 12 11.8 WNW 7 9 4 5 1017.5 1017.0 0.0
26/06:00pm 24.6 19.9 -9.0 10 13.2 WNW 9 11 5 6 1017.4 1016.9 0.0
26/05:30pm 25.8 20.7 -9.4 9 13.9 NW 11 17 6 9 1017.2 1016.7 0.0
26/05:00pm 26.4 22.3 -9.0 9 14.1 WNW 6 20 3 11 1017.1 1016.6 0.0
26/04:30pm 26.4 21.3 -9.0 9 14.1 WNW 11 20 6 11 1016.9 1016.4 0.0
26/04:00pm 26.5 21.8 -8.9 9 14.2 W 9 20 5 11 1017.0 1016.5 0.0
26/03:30pm 26.3 21.3 -7.7 10 13.9 SW 11 22 6 12 1017.0 1016.5 0.0
26/03:00pm 26.9 21.9 -8.6 9 14.3 W 11 20 6 11 1017.1 1016.6 0.0
26/02:30pm 26.3 21.2 -9.1 9 14.1 SW 11 24 6 13 1017.3 1016.8 0.0
26/02:00pm 27.7 22.0 -8.0 9 14.7 WNW 15 28 8 15 1017.6 1017.1 0.0
26/01:30pm 26.6 21.5 -8.8 9 14.2 W 11 20 6 11 1017.8 1017.4 0.0
26/01:00pm 26.2 21.2 -7.8 10 13.9 NNE 11 20 6 11 1018.2 1017.8 0.0
26/12:30pm 26.0 20.3 -7.9 10 13.7 N 15 24 8 13 1018.7 1018.3 0.0
26/12:00pm 24.9 19.8 -8.8 10 13.3 NW 11 19 6 10 1019.2 1018.8 0.0
26/11:30am 24.5 20.4 -9.1 10 13.1 N 6 15 3 8 1019.6 1019.2 0.0
26/11:00am 23.7 19.0 -9.7 10 12.8 N 9 13 5 7 1020.2 1019.8 0.0
26/10:30am 23.4 18.8 -7.6 12 12.3 WNW 9 19 5 10 1020.5 1020.1 0.0
26/10:00am 22.8 18.2 -8.1 12 12.1 NW 9 17 5 9 1020.8 1020.3 0.0
26/09:30am 22.2 17.6 -7.5 13 11.7 N 9 17 5 9 1021.1 1020.7 0.0
26/09:00am 21.9 16.7 -5.9 15 11.2 ENE 13 15 7 8 1021.2 1020.8 0.0
26/08:30am 20.4 15.4 -4.0 19 10.1 E 13 15 7 8 1021.3 1020.9 0.0
26/08:00am 18.6 13.7 -3.5 22 9.1 E 13 20 7 11 1021.2 1020.8 0.0
26/07:30am 14.8 11.2 -4.0 27 7.3 ESE 6 9 3 5 1021.2 1020.8 0.0
26/07:00am 10.6 8.0 -5.4 32 5.8 CALM 0 7 0 4 1021.1 1020.7 0.0
26/06:30am 9.2 5.2 -5.8 34 5.3 ESE 7 9 4 5 1020.9 1020.4 0.0
26/06:00am 8.7 4.6 -6.3 34 5.2 ESE 7 11 4 6 1020.5 1020.1 0.0
26/05:30am 8.3 3.3 -7.8 31 5.3 ESE 11 13 6 7 1020.2 1019.8 0.0
26/05:00am 9.5 5.0 -7.2 30 5.7 ESE 9 11 5 6 1020.0 1019.6 0.0
26/04:30am 9.2 4.6 -7.9 29 5.7 ESE 9 9 5 5 1019.7 1019.3 0.0
26/04:00am 12.0 8.0 -5.9 28 6.5 ESE 7 9 4 5 1019.8 1019.4 0.0
26/03:30am 13.4 9.0 -5.7 26 7.1 ESE 9 9 5 5 1019.9 1019.5 0.0
26/03:00am 12.3 9.6 -6.1 27 6.7 CALM 0 0 0 0 1020.0 1019.6 0.0
26/02:30am 11.5 8.7 -6.8 27 6.5 CALM 0 0 0 0 1020.3 1019.9 0.0
26/02:00am 12.6 9.4 -6.9 25 7.0 ESE 2 7 1 4 1020.7 1020.2 0.0
26/01:30am 12.6 8.5 -6.9 25 7.0 ESE 7 9 4 5 1020.8 1020.3 0.0
26/01:00am 12.5 9.7 -7.0 25 7.0 CALM 0 0 0 0 1021.1 1020.7 0.0
26/12:30am 12.9 8.0 -7.2 24 7.2 ESE 11 13 6 7 1021.3 1020.9 0.0
26/12:00am 12.9 7.9 -7.7 23 7.2 ESE 11 13 6 7 1021.4 1021.0 0.0
 
Date/Time
CST
Temp
°C
App
Temp
°C
Dew
Point
°C
Rel
Hum
%
Delta-T
°C
Wind Press
QNH
hPa
Press
MSL
hPa
Rain since
9am
mm
Dir  Spd
km/h
Gust
km/h
Spd
kts
Gust
kts
25/11:30pm 14.0 8.3 -7.4 22 7.7 ESE 15 17 8 9 1021.6 1021.2 0.0
25/11:00pm 14.8 9.5 -7.3 21 8.1 SE 13 15 7 8 1021.8 1021.4 0.0
25/10:30pm 14.0 8.3 -7.9 21 7.8 ESE 15 17 8 9 1021.9 1021.5 0.0
25/10:00pm 14.6 10.4 -7.4 21 8.0 SSE 7 11 4 6 1022.0 1021.6 0.0
25/09:30pm 14.9 9.9 -7.8 20 8.2 SE 11 13 6 7 1022.1 1021.7 0.0
25/09:00pm 15.6 9.9 -7.9 19 8.5 ESE 15 15 8 8 1022.0 1021.6 0.0
25/08:30pm 16.3 10.2 -8.0 18 8.8 ESE 17 19 9 10 1021.8 1021.4 0.0
25/08:00pm 17.7 11.9 -8.4 16 9.6 SE 15 17 8 9 1021.6 1021.2 0.0
25/07:30pm 18.9 13.4 -9.1 14 10.3 SE 13 17 7 9 1021.3 1020.9 0.0
25/07:00pm 21.0 15.2 -8.4 13 11.2 SE 15 22 8 12 1020.9 1020.4 0.0
25/06:30pm 21.3 15.5 -9.2 12 11.5 S 15 19 8 10 1020.5 1020.1 0.0
25/06:00pm 22.7 17.2 -9.2 11 12.2 S 13 17 7 9 1020.3 1019.9 0.0
25/05:30pm 24.0 18.8 -10.8 9 13.1 S 11 15 6 8 1020.2 1019.8 0.0
25/05:00pm 24.5 18.7 -13.5 7 13.7 S 13 17 7 9 1020.3 1019.9 0.0
25/04:30pm 24.7 20.1 -13.4 7 13.8 S 7 13 4 7 1020.2 1019.8 0.0
25/04:00pm 24.4 19.5 -11.9 8 13.5 SE 9 17 5 9 1020.3 1019.9 0.0
25/03:30pm 25.2 20.9 -11.4 8 13.8 SW 6 11 3 6 1020.4 1020.0 0.0
25/03:00pm 24.8 19.5 -11.7 8 13.6 E 11 15 6 8 1020.7 1020.2 0.0
25/02:30pm 25.0 20.6 -10.0 9 13.5 SW 7 15 4 8 1021.0 1020.6 0.0
25/02:00pm 24.8 20.0 -10.2 9 13.5 SE 9 20 5 11 1021.5 1021.1 0.0
25/01:30pm 24.3 19.9 -10.6 9 13.2 SSE 7 15 4 8 1021.9 1021.5 0.0
25/01:00pm 23.1 18.7 -10.1 10 12.6 SSE 7 17 4 9 1022.4 1022.0 0.0
25/12:30pm 23.7 18.9 -11.0 9 12.9 NNW 9 15 5 8 1022.9 1022.5 0.0
25/12:00pm 22.3 17.7 -13.5 8 12.5 SSE 7 13 4 7 1023.4 1023.0 0.0
25/11:30am 21.8 17.0 -11.1 10 12.0 SE 9 15 5 8 1023.9 1023.5 0.0
25/11:00am 21.4 16.7 -9.1 12 11.6 ESE 9 13 5 7 1024.3 1024.0 0.0
25/10:30am 20.3 15.8 -7.1 15 10.6 ESE 9 17 5 9 1024.8 1024.4 0.0
25/10:00am 19.2 15.8 -5.0 19 9.7 SSE 4 13 2 7 1025.2 1024.8 0.0
25/09:30am 17.9 14.1 -4.1 22 8.8 SSE 7 15 4 8 1025.4 1025.0 0.0
25/09:00am 16.8 12.5 -4.4 23 8.4 SE 9 19 5 10 1025.4 1025.0 0.0
25/08:30am 15.3 11.1 -4.1 26 7.6 SE 9 17 5 9 1025.3 1024.9 0.0
25/08:00am 14.3 10.0 -4.4 27 7.2 SE 9 13 5 7 1025.4 1025.0 0.0
25/07:30am 12.9 7.9 -4.2 30 6.5 ESE 13 17 7 9 1025.3 1024.9 0.0
25/07:00am 9.7 5.0 -5.0 35 5.3 SE 11 13 6 7 1025.2 1024.8 0.0
25/06:30am 8.3 3.7 -4.5 40 4.6 SE 11 13 6 7 1025.1 1024.7 0.0
25/06:00am 7.9 3.6 -5.2 39 4.6 ESE 9 11 5 6 1025.0 1024.6 0.0
25/05:30am 6.0 2.2 -5.6 43 3.9 ESE 6 9 3 5 1024.5 1024.2 0.0
25/05:00am 7.7 5.1 -4.7 41 4.4 CALM 0 0 0 0 1024.3 1024.0 0.0
25/04:30am 7.2 4.5 -5.5 40 4.4 CALM 0 0 0 0 1024.0 1023.6 0.0
25/04:00am 7.9 5.3 -5.2 39 4.6 CALM 0 0 0 0 1024.1 1023.7 0.0
25/03:30am 9.9 6.6 -4.8 35 5.3 ESE 4 7 2 4 1024.2 1023.8 0.0
25/03:00am 9.6 7.0 -5.1 35 5.3 CALM 0 0 0 0 1024.4 1024.1 0.0
25/02:30am 10.0 6.2 -5.1 34 5.4 ESE 6 11 3 6 1024.5 1024.2 0.0
25/02:00am 11.5 8.6 -4.6 32 6.0 SE 2 7 1 4 1024.4 1024.1 0.0
25/01:30am 11.8 6.7 -4.8 31 6.1 ESE 13 17 7 9 1024.8 1024.4 0.0
25/01:00am 12.3 7.6 -4.8 30 6.4 E 11 13 6 7 1025.3 1024.9 0.0
25/12:30am 13.6 7.4 -4.5 28 6.9 E 19 22 10 12 1025.4 1025.0 0.0
25/12:00am 14.1 8.6 -5.1 26 7.2 ENE 15 20 8 11 1025.6 1025.2 0.0
 
Date/Time
CST
Temp
°C
App
Temp
°C
Dew
Point
°C
Rel
Hum
%
Delta-T
°C
Wind Press
QNH
hPa
Press
MSL
hPa
Rain since
9am
mm
Dir  Spd
km/h
Gust
km/h
Spd
kts
Gust
kts
24/11:30pm 13.5 8.4 -5.1 27 7.0 E 13 17 7 9 1025.3 1024.9 0.0
24/11:00pm 13.6 8.9 -5.5 26 7.1 E 11 13 6 7 1025.6 1025.2 0.0
24/10:30pm 13.9 8.5 -4.8 27 7.1 E 15 20 8 11 1025.4 1025.0 0.0
24/10:00pm 14.2 8.5 -4.0 28 7.1 ESE 17 19 9 10 1025.3 1024.9 0.0
24/09:30pm 15.7 9.7 -3.2 27 7.6 ESE 19 22 10 12 1025.4 1025.0 0.0
24/09:00pm 15.9 11.0 -3.6 26 7.8 ESE 13 17 7 9 1025.3 1024.9 0.0
24/08:30pm 16.5 10.8 -3.6 25 8.0 ESE 17 20 9 11 1025.1 1024.7 0.0
24/08:00pm 17.4 11.7 -3.9 23 8.6 ESE 17 20 9 11 1024.8 1024.4 0.0
24/07:30pm 18.1 12.8 -3.9 22 8.9 ESE 15 20 8 11 1024.5 1024.2 0.0
24/07:00pm 19.1 13.5 -3.1 22 9.3 SE 17 22 9 12 1024.1 1023.7 0.0
24/06:30pm 20.1 14.5 -2.9 21 9.7 SE 17 24 9 13 1023.8 1023.4 0.0
24/06:00pm 21.1 15.4 -3.4 19 10.3 SE 17 26 9 14 1023.4 1023.0 0.0
24/05:30pm 22.3 16.5 -4.7 16 11.2 SE 17 28 9 15 1023.2 1022.8 0.0
24/05:00pm 23.6 17.8 -4.5 15 11.9 SSE 17 28 9 15 1022.8 1022.4 0.0
24/04:30pm 24.0 18.6 -4.2 15 12.0 SSE 15 26 8 14 1022.7 1022.3 0.0
24/04:00pm 25.1 21.0 -3.3 15 12.5 SSE 9 24 5 13 1022.6 1022.2 0.0
24/03:30pm 24.6 19.9 -2.0 17 11.9 SE 13 22 7 12 1022.8 1022.4 0.0
24/03:00pm 24.9 20.3 -1.0 18 11.8 ESE 13 26 7 14 1023.0 1022.6 0.0
24/02:30pm 24.0 18.6 -1.0 19 11.3 ESE 17 24 9 13 1023.5 1023.1 0.0
24/02:00pm 23.7 20.2 -1.3 19 11.3 ESE 7 24 4 13 1024.0 1023.6 0.0
24/01:30pm 23.2 19.0 -1.0 20 10.9 ESE 11 19 6 10 1024.8 1024.4 0.0
24/01:00pm 22.5 17.8 -1.6 20 10.7 S 13 20 7 11 1025.4 1025.0 0.0
24/12:30pm 22.8 19.1 0.0 22 10.4 SE 9 17 5 9 1025.8 1025.4 0.0
24/12:00pm 21.6 17.8 -0.4 23 9.8 SSE 9 17 5 9 1026.3 1025.9 0.0
24/11:30am 21.0 16.5 -0.3 24 9.5 SE 13 20 7 11 1026.6 1026.2 0.0
24/11:00am 21.2 16.2 1.5 27 9.2 ESE 17 26 9 14 1027.1 1026.7 0.0
24/10:30am 19.7 14.4 1.7 30 8.3 SE 19 30 10 16 1027.6 1027.3 0.0
24/10:00am 18.9 13.1 2.3 33 7.7 E 22 32 12 17 1027.9 1027.6 0.0
24/09:30am 18.4 12.2 2.3 34 7.4 ESE 24 32 13 17 1028.1 1027.8 0.0
24/09:00am 17.5 9.3 2.7 37 6.8 E 35 44 19 24 1027.9 1027.6 0.0
24/08:30am 17.0 9.3 3.3 40 6.4 E 33 41 18 22 1027.6 1027.3 0.0
24/08:00am 16.0 10.9 3.1 42 6.0 ESE 19 28 10 15 1027.6 1027.3 0.0
24/07:30am 14.7 9.0 2.9 45 5.3 ESE 22 32 12 17 1027.4 1027.0 0.0
24/07:00am 13.5 7.4 3.0 49 4.7 SE 24 37 13 20 1027.2 1026.8 0.0
24/06:30am 12.8 6.8 3.2 52 4.3 SE 24 35 13 19 1026.8 1026.4 0.0
24/06:00am 12.9 7.3 3.6 53 4.2 SE 22 33 12 18 1026.5 1026.1 0.0
24/05:30am 12.8 7.9 4.0 55 4.0 SE 19 30 10 16 1026.3 1025.9 0.0
24/05:00am 12.3 8.6 4.3 58 3.7 SE 13 20 7 11 1026.2 1025.8 0.0
24/04:30am 12.4 8.6 4.1 57 3.8 ESE 13 19 7 10 1026.1 1025.7 0.0
24/04:00am 13.3 8.5 4.7 56 4.0 SE 19 28 10 15 1026.0 1025.6 0.0
24/03:30am 13.5 9.1 4.6 55 4.1 SE 17 20 9 11 1026.1 1025.7 0.0
24/03:00am 13.9 9.5 4.5 53 4.4 SE 17 30 9 16 1026.2 1025.8 0.0
24/02:30am 14.0 10.6 3.8 50 4.7 SE 11 20 6 11 1026.6 1026.2 0.0
24/02:00am 15.1 10.9 3.9 47 5.2 SE 15 22 8 12 1026.9 1026.5 0.0
24/01:30am 15.1 10.4 3.3 45 5.4 ESE 17 22 9 12 1027.2 1026.8 0.0
24/01:00am 15.9 10.9 3.4 43 5.8 SE 19 26 10 14 1027.4 1027.0 0.0
24/12:30am 16.2 10.1 2.6 40 6.2 SE 24 33 13 18 1027.3 1026.9 0.0
24/12:00am 16.7 9.7 2.0 37 6.6 ESE 28 33 15 18 1027.2 1026.8 0.0
 
Date/Time
CST
Temp
°C
App
Temp
°C
Dew
Point
°C
Rel
Hum
%
Delta-T
°C
Wind Press
QNH
hPa
Press
MSL
hPa
Rain since
9am
mm
Dir  Spd
km/h
Gust
km/h
Spd
kts
Gust
kts
23/11:30pm 17.4 11.1 1.4 34 7.2 ESE 24 33 13 18 1027.3 1026.9 0.0
23/11:00pm 17.9 11.9 1.0 32 7.6 ESE 22 30 12 16 1027.4 1027.0 0.0
23/10:30pm 18.5 11.9 -0.3 28 8.2 ESE 24 32 13 17 1027.5 1027.1 0.0

Other Formats:

Comma delimited format used in spreadsheet applications
http://www.bom.gov.au/fwo/IDS60801/IDS60801.94674.axf

JavaScript Object Notation format (JSON) in row-major order
http://www.bom.gov.au/fwo/IDS60801/IDS60801.94674.json